createdAt,value
2018-06-30T00:00:38.850Z,16.60
2018-06-30T00:03:07.350Z,16.50
2018-06-30T00:05:35.837Z,16.50
2018-06-30T00:08:04.335Z,16.40
2018-06-30T00:10:32.872Z,16.40
2018-06-30T00:13:01.972Z,16.30
2018-06-30T00:15:30.486Z,16.30
2018-06-30T00:17:58.970Z,16.30
2018-06-30T00:20:27.446Z,16.20
2018-06-30T00:22:56.108Z,16.20
2018-06-30T00:25:24.546Z,16.20
2018-06-30T00:27:55.717Z,16.10
2018-06-30T00:30:25.710Z,16.10
2018-06-30T00:32:54.910Z,16.10
2018-06-30T00:35:23.523Z,16.00
2018-06-30T00:37:52.030Z,15.90
2018-06-30T00:40:20.505Z,15.90
2018-06-30T00:42:49.542Z,15.80
2018-06-30T00:45:17.982Z,15.80
2018-06-30T00:47:46.488Z,15.80
2018-06-30T00:50:15.181Z,15.70
2018-06-30T00:52:43.664Z,15.70
2018-06-30T00:55:12.139Z,15.70
2018-06-30T00:57:40.611Z,15.60
2018-06-30T01:00:09.174Z,15.50
2018-06-30T01:02:37.655Z,15.50
2018-06-30T01:05:06.186Z,15.50
2018-06-30T01:07:34.716Z,15.50
2018-06-30T01:10:03.282Z,15.40
2018-06-30T01:12:31.822Z,15.30
2018-06-30T01:15:00.313Z,15.30
2018-06-30T01:17:28.834Z,15.30
2018-06-30T01:19:57.333Z,15.30
2018-06-30T01:22:25.836Z,15.30
2018-06-30T01:24:54.392Z,15.20
2018-06-30T01:27:22.867Z,15.10
2018-06-30T01:29:51.364Z,15.10
2018-06-30T01:32:19.864Z,15.10
2018-06-30T01:34:48.387Z,15.00
2018-06-30T01:37:16.893Z,15.00
2018-06-30T01:39:45.438Z,15.00
2018-06-30T01:42:13.910Z,15.00
2018-06-30T01:44:42.423Z,14.90
2018-06-30T01:47:11.154Z,14.90
2018-06-30T01:49:39.668Z,14.80
2018-06-30T01:55:21.303Z,14.70
2018-06-30T01:57:49.797Z,14.70
2018-06-30T02:00:18.331Z,14.80
2018-06-30T02:02:46.822Z,14.80
2018-06-30T02:05:15.339Z,14.80
2018-06-30T02:07:43.816Z,14.90
2018-06-30T02:10:12.354Z,14.90
2018-06-30T02:12:40.890Z,15.00
2018-06-30T02:15:09.389Z,15.00
2018-06-30T02:17:37.890Z,15.00
2018-06-30T02:20:06.455Z,14.90
2018-06-30T02:22:34.942Z,14.90
2018-06-30T02:25:03.465Z,14.90
2018-06-30T02:27:31.946Z,14.90
2018-06-30T02:30:00.686Z,14.80
2018-06-30T02:32:29.262Z,14.80
2018-06-30T02:34:57.780Z,14.80
2018-06-30T02:37:26.286Z,14.80
2018-06-30T02:39:54.806Z,14.90
2018-06-30T02:42:23.298Z,14.90
2018-06-30T02:44:51.811Z,14.90
2018-06-30T02:47:20.333Z,14.90
2018-06-30T02:49:48.858Z,14.90
2018-06-30T02:52:17.339Z,14.90
2018-06-30T02:54:45.946Z,14.90
2018-06-30T02:57:14.425Z,14.90
2018-06-30T02:59:43.246Z,14.90
2018-06-30T03:02:11.730Z,14.90
2018-06-30T03:04:40.615Z,14.90
2018-06-30T03:07:09.112Z,14.90
2018-06-30T03:09:37.680Z,14.90
2018-06-30T03:12:06.194Z,14.90
2018-06-30T03:14:35.224Z,14.90
2018-06-30T03:17:04.060Z,14.90
2018-06-30T03:19:32.576Z,14.90
2018-06-30T03:22:01.069Z,14.90
2018-06-30T03:24:29.601Z,14.90
2018-06-30T03:26:58.094Z,14.90
2018-06-30T03:29:26.665Z,14.90
2018-06-30T03:31:55.190Z,14.90
2018-06-30T03:34:23.698Z,14.80
2018-06-30T03:36:52.217Z,14.80
2018-06-30T03:39:20.731Z,14.80
2018-06-30T03:41:49.261Z,14.80
2018-06-30T03:44:17.755Z,14.80
2018-06-30T03:46:46.250Z,14.70
2018-06-30T03:49:14.744Z,14.70
2018-06-30T03:51:43.258Z,14.70
2018-06-30T03:54:11.747Z,14.70
2018-06-30T03:56:40.820Z,14.70
2018-06-30T03:59:09.347Z,14.70
2018-06-30T04:01:37.859Z,14.70
2018-06-30T04:04:06.354Z,14.80
2018-06-30T04:06:37.740Z,14.80
2018-06-30T04:09:08.818Z,14.80
2018-06-30T04:11:37.632Z,14.80
2018-06-30T04:14:06.127Z,14.80
2018-06-30T04:16:34.745Z,14.80
2018-06-30T04:19:08.562Z,14.90
2018-06-30T04:21:37.075Z,14.90
2018-06-30T04:24:05.571Z,15.00
2018-06-30T04:26:34.067Z,15.10
2018-06-30T04:29:02.749Z,15.20
2018-06-30T04:31:31.253Z,15.30
2018-06-30T04:33:59.753Z,15.40
2018-06-30T04:36:28.267Z,15.50
2018-06-30T04:38:56.779Z,15.50
2018-06-30T04:41:25.329Z,15.50
2018-06-30T04:43:54.044Z,15.60
2018-06-30T04:46:22.811Z,15.80
2018-06-30T04:48:51.286Z,15.90
2018-06-30T04:51:19.820Z,15.90
2018-06-30T04:53:48.315Z,15.80
2018-06-30T04:56:16.851Z,16.00
2018-06-30T04:58:45.397Z,15.90
2018-06-30T05:01:13.895Z,15.90
2018-06-30T05:03:42.424Z,16.00
2018-06-30T05:06:10.925Z,15.90
2018-06-30T05:08:39.405Z,15.90
2018-06-30T05:11:07.953Z,15.90
2018-06-30T05:13:36.469Z,15.90
2018-06-30T05:16:05.771Z,15.90
2018-06-30T05:18:34.266Z,16.00
2018-06-30T05:21:02.773Z,16.10
2018-06-30T05:23:31.325Z,16.20
2018-06-30T05:26:00.268Z,16.30
2018-06-30T05:28:28.679Z,16.50
2018-06-30T05:30:57.185Z,16.70
2018-06-30T05:33:25.718Z,17.00
2018-06-30T05:35:54.183Z,17.20
2018-06-30T05:38:22.678Z,17.60
2018-06-30T05:40:51.171Z,18.00
2018-06-30T05:43:19.647Z,18.30
2018-06-30T05:45:48.098Z,18.70
2018-06-30T05:48:16.925Z,19.10
2018-06-30T05:50:45.396Z,19.50
2018-06-30T05:53:13.965Z,19.90
2018-06-30T05:55:42.351Z,20.20
2018-06-30T05:58:10.846Z,20.80
2018-06-30T06:00:39.403Z,21.10
2018-06-30T06:03:07.905Z,21.50
2018-06-30T06:05:36.374Z,21.90
2018-06-30T06:08:04.894Z,22.30
2018-06-30T06:10:33.387Z,22.60
2018-06-30T06:13:01.912Z,22.50
2018-06-30T06:15:30.390Z,22.60
2018-06-30T06:17:58.879Z,22.50
2018-06-30T06:20:27.593Z,23.20
2018-06-30T06:22:56.122Z,23.30
2018-06-30T06:25:24.647Z,23.30
2018-06-30T06:27:55.142Z,23.50
2018-06-30T06:30:23.727Z,24.10
2018-06-30T06:32:52.346Z,24.60
2018-06-30T06:35:20.944Z,24.80
2018-06-30T06:37:49.514Z,25.10
2018-06-30T06:40:18.094Z,25.10
2018-06-30T06:42:46.678Z,25.60
2018-06-30T06:45:15.306Z,26.00
2018-06-30T06:47:43.955Z,26.10
2018-06-30T06:50:12.532Z,26.70
2018-06-30T06:52:41.052Z,27.00
2018-06-30T06:55:09.539Z,27.10
2018-06-30T06:57:38.153Z,27.30
2018-06-30T07:00:06.923Z,27.70
2018-06-30T07:02:35.859Z,27.70
2018-06-30T07:05:04.796Z,28.20
2018-06-30T07:07:33.423Z,27.90
2018-06-30T07:10:02.043Z,28.60
2018-06-30T07:12:34.006Z,28.90
2018-06-30T07:15:02.680Z,29.40
2018-06-30T07:17:31.263Z,28.90
2018-06-30T07:19:59.831Z,29.30
2018-06-30T07:22:28.630Z,29.60
2018-06-30T07:24:57.394Z,30.00
2018-06-30T07:27:25.923Z,30.30
2018-06-30T07:29:54.384Z,30.70
2018-06-30T07:32:22.928Z,30.90
2018-06-30T07:34:51.406Z,31.10
2018-06-30T07:37:20.232Z,31.50
2018-06-30T07:39:48.655Z,31.30
2018-06-30T07:42:23.510Z,31.30
2018-06-30T07:44:52.003Z,31.60
2018-06-30T07:47:20.651Z,32.00
2018-06-30T07:49:49.203Z,32.10
2018-06-30T07:52:17.879Z,32.30
2018-06-30T07:54:46.450Z,32.40
2018-06-30T07:57:15.298Z,31.80
2018-06-30T07:59:43.795Z,31.80
2018-06-30T08:02:12.226Z,31.50
2018-06-30T08:04:40.703Z,32.20
2018-06-30T08:07:09.147Z,32.00
2018-06-30T08:09:37.595Z,31.30
2018-06-30T08:12:06.061Z,31.00
2018-06-30T08:14:34.542Z,30.80
2018-06-30T08:17:02.974Z,30.50
2018-06-30T08:19:31.427Z,30.90
2018-06-30T08:21:59.883Z,31.30
2018-06-30T08:24:28.618Z,31.30
2018-06-30T08:26:57.323Z,31.70
2018-06-30T08:29:27.589Z,31.70
2018-06-30T08:31:56.743Z,31.90
2018-06-30T08:34:27.637Z,32.10
2018-06-30T08:36:59.899Z,32.40
2018-06-30T08:39:29.520Z,32.30
2018-06-30T08:41:58.482Z,32.60
2018-06-30T08:44:27.599Z,32.40
2018-06-30T08:46:57.668Z,31.90
2018-06-30T08:49:28.423Z,32.20
2018-06-30T08:51:58.360Z,32.20
2018-06-30T08:54:27.413Z,32.10
2018-06-30T08:56:57.582Z,31.90
2018-06-30T08:59:27.546Z,31.60
2018-06-30T09:01:58.951Z,31.40
2018-06-30T09:04:28.886Z,31.40
2018-06-30T09:06:59.675Z,31.70
2018-06-30T09:09:29.111Z,32.10
2018-06-30T09:12:03.860Z,31.90
2018-06-30T09:14:34.645Z,31.70
2018-06-30T09:17:04.792Z,32.00
2018-06-30T09:19:34.746Z,31.70
2018-06-30T09:22:04.856Z,31.30
2018-06-30T09:24:35.762Z,30.70
2018-06-30T09:27:05.964Z,31.00
2018-06-30T09:29:36.571Z,31.20
2018-06-30T09:32:05.702Z,31.40
2018-06-30T09:34:34.842Z,30.80
2018-06-30T09:37:03.980Z,30.30
2018-06-30T09:39:34.735Z,30.40
2018-06-30T09:42:05.702Z,30.50
2018-06-30T09:44:36.979Z,31.20
2018-06-30T09:47:07.281Z,31.40
2018-06-30T09:49:36.405Z,31.60
2018-06-30T09:52:05.616Z,31.60
2018-06-30T09:54:34.809Z,31.60
2018-06-30T09:57:05.573Z,31.30
2018-06-30T09:59:36.147Z,31.90
2018-06-30T10:02:06.268Z,32.10
2018-06-30T10:04:37.406Z,31.60
2018-06-30T10:07:08.032Z,30.70
2018-06-30T10:09:38.377Z,30.90
2018-06-30T10:12:09.405Z,31.30
2018-06-30T10:14:40.711Z,31.40
2018-06-30T10:17:09.823Z,31.60
2018-06-30T10:19:40.347Z,30.80
2018-06-30T10:22:10.482Z,30.90
2018-06-30T10:24:42.182Z,31.20
2018-06-30T10:27:12.443Z,31.00
2018-06-30T10:29:42.835Z,31.10
2018-06-30T10:32:14.265Z,30.80
2018-06-30T10:34:45.397Z,31.50
2018-06-30T10:37:14.370Z,31.80
2018-06-30T10:39:44.781Z,31.60
2018-06-30T10:42:13.940Z,31.30
2018-06-30T10:44:45.896Z,31.40
2018-06-30T10:47:16.072Z,31.00
2018-06-30T10:49:45.592Z,30.90
2018-06-30T10:52:16.107Z,31.00
2018-06-30T10:54:47.305Z,30.80
2018-06-30T10:57:17.048Z,31.40
2018-06-30T10:59:47.768Z,31.70
2018-06-30T11:02:17.091Z,31.30
2018-06-30T11:04:46.435Z,31.20
2018-06-30T11:07:17.638Z,30.90
2018-06-30T11:09:48.778Z,30.40
2018-06-30T11:12:19.047Z,30.50
2018-06-30T11:14:49.705Z,30.70
2018-06-30T11:17:18.862Z,31.00
2018-06-30T11:19:49.041Z,31.30
2018-06-30T11:22:19.610Z,31.30
2018-06-30T11:24:49.131Z,31.10
2018-06-30T11:27:19.722Z,31.00
2018-06-30T11:29:50.647Z,31.00
2018-06-30T11:35:15.871Z,31.50
2018-06-30T11:37:45.254Z,31.80
2018-06-30T11:40:16.593Z,31.80
2018-06-30T11:42:46.653Z,31.90
2018-06-30T11:45:17.718Z,31.60
2018-06-30T11:47:49.945Z,31.80
2018-06-30T11:50:20.235Z,32.10
2018-06-30T11:52:50.164Z,32.50
2018-06-30T11:55:20.839Z,32.20
2018-06-30T11:57:50.062Z,32.00
2018-06-30T12:00:21.574Z,31.70
2018-06-30T12:02:50.158Z,31.60
2018-06-30T12:05:18.749Z,31.80
2018-06-30T12:07:47.230Z,31.70
2018-06-30T12:10:15.912Z,31.90
2018-06-30T12:12:44.418Z,32.50
2018-06-30T12:15:12.957Z,32.30
2018-06-30T12:17:41.463Z,32.20
2018-06-30T12:20:10.211Z,32.50
2018-06-30T12:22:38.738Z,32.20
2018-06-30T12:25:07.641Z,31.90
2018-06-30T12:27:36.131Z,32.40
2018-06-30T12:30:09.461Z,31.90
2018-06-30T12:32:38.997Z,32.20
2018-06-30T12:35:08.616Z,32.30
2018-06-30T12:37:37.182Z,31.30
2018-06-30T12:40:05.771Z,31.60
2018-06-30T12:42:34.465Z,32.10
2018-06-30T12:45:02.975Z,32.10
2018-06-30T12:47:32.449Z,32.60
2018-06-30T12:50:00.957Z,32.50
2018-06-30T12:52:29.543Z,32.10
2018-06-30T12:54:57.996Z,32.50
2018-06-30T12:57:29.656Z,32.60
2018-06-30T12:59:58.362Z,32.10
2018-06-30T13:02:30.053Z,31.90
2018-06-30T13:04:58.657Z,31.40
2018-06-30T13:07:27.743Z,31.30
2018-06-30T13:09:58.544Z,31.30
2018-06-30T13:12:28.755Z,31.00
2018-06-30T13:14:58.532Z,31.00
2018-06-30T13:17:28.586Z,30.60
2018-06-30T13:19:59.959Z,29.90
2018-06-30T13:22:29.419Z,29.20
2018-06-30T13:24:58.832Z,29.70
2018-06-30T13:27:29.755Z,30.20
2018-06-30T13:30:00.204Z,30.50
2018-06-30T13:32:30.564Z,30.70
2018-06-30T13:35:00.805Z,30.70
2018-06-30T13:37:30.275Z,30.40
2018-06-30T13:40:00.964Z,30.20
2018-06-30T13:42:34.281Z,30.30
2018-06-30T13:45:04.408Z,30.30
2018-06-30T13:47:35.405Z,29.90
2018-06-30T13:50:05.545Z,28.90
2018-06-30T13:52:34.674Z,28.30
2018-06-30T13:55:05.247Z,28.50
2018-06-30T13:57:34.976Z,28.70
2018-06-30T14:00:10.403Z,28.90
2018-06-30T14:02:41.421Z,29.20
2018-06-30T14:05:11.340Z,29.50
2018-06-30T14:07:42.827Z,29.70
2018-06-30T14:10:12.229Z,29.90
2018-06-30T14:12:44.687Z,30.00
2018-06-30T14:15:14.343Z,29.80
2018-06-30T14:17:44.397Z,29.80
2018-06-30T14:20:13.403Z,29.70
2018-06-30T14:22:45.331Z,29.50
2018-06-30T14:25:17.979Z,29.30
2018-06-30T14:27:50.618Z,29.40
2018-06-30T14:30:24.425Z,29.00
2018-06-30T14:32:55.505Z,29.10
2018-06-30T14:35:26.468Z,28.70
2018-06-30T14:37:57.458Z,28.40
2018-06-30T14:40:29.336Z,28.60
2018-06-30T14:43:00.136Z,28.50
2018-06-30T14:45:31.530Z,28.40
2018-06-30T14:48:04.427Z,28.10
2018-06-30T14:50:33.947Z,28.20
2018-06-30T14:53:06.104Z,27.80
2018-06-30T14:55:36.287Z,27.90
2018-06-30T14:58:07.966Z,28.00
2018-06-30T15:00:37.211Z,28.00
2018-06-30T15:03:06.198Z,27.90
2018-06-30T15:05:35.016Z,27.90
2018-06-30T15:08:04.002Z,27.80
2018-06-30T15:10:32.916Z,27.90
2018-06-30T15:13:01.852Z,27.80
2018-06-30T15:15:30.766Z,27.80
2018-06-30T15:17:59.605Z,27.70
2018-06-30T15:20:29.120Z,27.60
2018-06-30T15:22:58.062Z,27.60
2018-06-30T15:25:26.793Z,27.40
2018-06-30T15:27:55.491Z,27.40
2018-06-30T15:30:24.262Z,27.30
2018-06-30T15:32:53.146Z,27.10
2018-06-30T15:35:22.290Z,27.10
2018-06-30T15:37:51.291Z,27.10
2018-06-30T15:40:20.411Z,27.10
2018-06-30T15:42:49.126Z,27.00
2018-06-30T15:45:17.885Z,27.00
2018-06-30T15:47:47.014Z,26.80
2018-06-30T15:50:16.145Z,26.60
2018-06-30T15:52:45.059Z,26.40
2018-06-30T15:55:14.572Z,26.20
2018-06-30T15:57:43.208Z,26.00
2018-06-30T16:00:12.833Z,25.90
2018-06-30T16:02:41.773Z,25.80
2018-06-30T16:05:10.621Z,25.70
2018-06-30T16:07:39.420Z,25.70
2018-06-30T16:10:08.423Z,25.60
2018-06-30T16:12:37.421Z,25.40
2018-06-30T16:15:06.343Z,25.40
2018-06-30T16:17:34.964Z,25.40
2018-06-30T16:20:04.673Z,25.20
2018-06-30T16:22:39.126Z,25.10
2018-06-30T16:25:08.004Z,25.20
2018-06-30T16:27:36.916Z,25.20
2018-06-30T16:30:06.927Z,25.10
2018-06-30T16:32:35.681Z,25.00
2018-06-30T16:35:04.612Z,25.00
2018-06-30T16:37:33.414Z,25.00
2018-06-30T16:40:02.238Z,24.90
2018-06-30T16:42:31.095Z,24.90
2018-06-30T16:44:59.868Z,24.80
2018-06-30T16:47:28.714Z,24.60
2018-06-30T16:49:57.548Z,24.40
2018-06-30T16:52:26.317Z,24.20
2018-06-30T16:54:55.352Z,24.10
2018-06-30T16:57:24.214Z,23.90
2018-06-30T16:59:53.009Z,23.90
2018-06-30T17:02:21.763Z,23.80
2018-06-30T17:04:50.575Z,23.70
2018-06-30T17:07:19.445Z,23.60
2018-06-30T17:09:48.224Z,23.50
2018-06-30T17:12:26.904Z,23.50
2018-06-30T17:14:56.411Z,23.40
2018-06-30T17:17:25.267Z,23.30
2018-06-30T17:19:54.088Z,23.20
2018-06-30T17:22:23.005Z,23.10
2018-06-30T17:24:51.804Z,23.00
2018-06-30T17:27:20.602Z,22.80
2018-06-30T17:29:49.413Z,22.70
2018-06-30T17:35:32.647Z,22.50
2018-06-30T17:38:01.389Z,22.40
2018-06-30T17:40:30.170Z,22.10
2018-06-30T17:42:58.972Z,22.10
2018-06-30T17:45:27.718Z,21.90
2018-06-30T17:47:56.424Z,21.90
2018-06-30T17:50:25.248Z,21.80
2018-06-30T17:52:55.275Z,21.70
2018-06-30T17:55:24.168Z,21.60
2018-06-30T17:57:53.052Z,21.60
2018-06-30T18:00:22.591Z,21.60
2018-06-30T18:02:51.423Z,21.50
2018-06-30T18:05:20.156Z,21.40
2018-06-30T18:07:48.931Z,21.30
2018-06-30T18:10:17.914Z,21.30
2018-06-30T18:12:46.832Z,21.20
2018-06-30T18:15:15.792Z,21.00
2018-06-30T18:17:45.122Z,21.00
2018-06-30T18:20:13.927Z,20.90
2018-06-30T18:22:42.777Z,20.80
2018-06-30T18:25:11.580Z,20.70
2018-06-30T18:27:40.506Z,20.70
2018-06-30T18:30:09.316Z,20.60
2018-06-30T18:32:38.139Z,20.40
2018-06-30T18:35:07.250Z,20.30
2018-06-30T18:37:36.081Z,20.30
2018-06-30T18:40:06.285Z,20.20
2018-06-30T18:42:35.015Z,20.10
2018-06-30T18:45:04.047Z,20.00
2018-06-30T18:47:32.926Z,19.90
2018-06-30T18:50:01.719Z,19.80
2018-06-30T18:52:30.606Z,19.70
2018-06-30T18:54:59.449Z,19.70
2018-06-30T18:57:28.208Z,19.50
2018-06-30T18:59:57.271Z,19.40
2018-06-30T19:02:26.375Z,19.20
2018-06-30T19:04:55.114Z,19.10
2018-06-30T19:07:24.044Z,19.00
2018-06-30T19:09:52.956Z,18.90
2018-06-30T19:12:21.887Z,18.80
2018-06-30T19:14:50.697Z,18.70
2018-06-30T19:17:19.580Z,18.50
2018-06-30T19:19:48.510Z,18.40
2018-06-30T19:22:17.319Z,18.30
2018-06-30T19:24:46.143Z,18.10
2018-06-30T19:27:14.977Z,18.00
2018-06-30T19:29:44.345Z,17.90
2018-06-30T19:32:13.170Z,17.70
2018-06-30T19:34:42.013Z,17.60
2018-06-30T19:37:10.854Z,17.50
2018-06-30T19:39:40.479Z,17.50
2018-06-30T19:42:09.423Z,17.40
2018-06-30T19:44:38.329Z,17.30
2018-06-30T19:47:07.286Z,17.20
2018-06-30T19:49:36.090Z,17.10
2018-06-30T19:52:04.848Z,17.00
2018-06-30T19:54:33.822Z,16.90
2018-06-30T19:57:02.650Z,16.80
2018-06-30T19:59:31.440Z,16.70
2018-06-30T20:02:00.300Z,16.70
2018-06-30T20:04:29.188Z,16.60
2018-06-30T20:06:57.969Z,16.60
2018-06-30T20:09:26.743Z,16.50
2018-06-30T20:11:55.559Z,16.40
2018-06-30T20:14:24.208Z,16.30
2018-06-30T20:16:54.677Z,16.30
2018-06-30T20:19:23.440Z,16.20
2018-06-30T20:21:52.290Z,16.00
2018-06-30T20:24:21.043Z,16.00
2018-06-30T20:26:49.928Z,15.90
2018-06-30T20:29:18.764Z,15.80
2018-06-30T20:31:47.567Z,15.70
2018-06-30T20:34:16.398Z,15.60
2018-06-30T20:36:45.113Z,15.50
2018-06-30T20:39:14.055Z,15.50
2018-06-30T20:41:42.866Z,15.40
2018-06-30T20:44:11.619Z,15.40
2018-06-30T20:46:41.076Z,15.40
2018-06-30T20:49:09.956Z,15.30
2018-06-30T20:51:38.832Z,15.30
2018-06-30T20:54:07.602Z,15.30
2018-06-30T20:56:36.404Z,15.20
2018-06-30T20:59:04.946Z,15.20
2018-06-30T21:01:38.425Z,15.10
2018-06-30T21:04:07.023Z,15.10
2018-06-30T21:06:35.758Z,15.00
2018-06-30T21:09:06.755Z,15.00
2018-06-30T21:11:35.685Z,14.90
2018-06-30T21:14:04.623Z,14.90
2018-06-30T21:16:33.498Z,14.80
2018-06-30T21:19:02.341Z,14.70
2018-06-30T21:21:32.403Z,14.70
2018-06-30T21:24:01.269Z,14.60
2018-06-30T21:26:30.021Z,14.60
2018-06-30T21:28:58.860Z,14.50
2018-06-30T21:31:27.695Z,14.50
2018-06-30T21:33:56.534Z,14.50
2018-06-30T21:36:25.464Z,14.40
2018-06-30T21:38:54.343Z,14.40
2018-06-30T21:41:23.166Z,14.30
2018-06-30T21:43:52.011Z,14.30
2018-06-30T21:46:20.828Z,14.20
2018-06-30T21:48:49.626Z,14.20
2018-06-30T21:51:18.354Z,14.10
2018-06-30T21:53:47.212Z,14.10
2018-06-30T21:56:16.248Z,14.00
2018-06-30T21:58:44.988Z,14.00
2018-06-30T22:01:18.960Z,14.00
2018-06-30T22:03:47.764Z,13.90
2018-06-30T22:06:17.482Z,13.90
2018-06-30T22:08:46.515Z,13.80
2018-06-30T22:11:15.277Z,13.80
2018-06-30T22:13:44.276Z,13.80
2018-06-30T22:16:12.982Z,13.70
2018-06-30T22:18:41.791Z,13.70
2018-06-30T22:21:10.994Z,13.60
2018-06-30T22:23:39.717Z,13.50
2018-06-30T22:26:08.489Z,13.50
2018-06-30T22:28:37.337Z,13.40
2018-06-30T22:31:06.088Z,13.40
2018-06-30T22:33:34.866Z,13.30
2018-06-30T22:36:03.627Z,13.20
2018-06-30T22:38:32.426Z,13.20
2018-06-30T22:41:01.128Z,13.10
2018-06-30T22:43:30.686Z,13.00
2018-06-30T22:45:59.416Z,13.00
2018-06-30T22:48:28.186Z,12.90
2018-06-30T22:50:56.914Z,12.80
2018-06-30T22:53:25.681Z,12.70
2018-06-30T22:55:54.477Z,12.70
2018-06-30T22:58:23.199Z,12.60
2018-06-30T23:00:51.939Z,12.50
2018-06-30T23:03:20.733Z,12.50
2018-06-30T23:05:49.479Z,12.40
2018-06-30T23:08:18.344Z,12.30
2018-06-30T23:10:47.043Z,12.20
2018-06-30T23:13:15.831Z,12.10
2018-06-30T23:15:44.560Z,12.10
2018-06-30T23:18:13.487Z,12.00
2018-06-30T23:20:42.147Z,11.90
2018-06-30T23:23:11.973Z,11.80
2018-06-30T23:25:41.319Z,11.70
2018-06-30T23:28:10.168Z,11.70
2018-06-30T23:30:39.141Z,11.60
2018-06-30T23:33:07.883Z,11.50
2018-06-30T23:35:36.553Z,11.50
2018-06-30T23:38:05.399Z,11.40
2018-06-30T23:40:34.167Z,11.30
2018-06-30T23:43:02.904Z,11.20
2018-06-30T23:45:32.044Z,11.20
2018-06-30T23:48:00.903Z,11.20
2018-06-30T23:50:29.712Z,11.20
2018-06-30T23:52:58.741Z,11.20
2018-06-30T23:55:27.480Z,11.20
2018-06-30T23:57:56.177Z,11.10
